首页
METAR-TAF:

METAR-TAF

机场 :

卡萊爾, 英格兰

纬度: 54-56-15N, 经度: 002-48-33W, 海拔: 57米

当前天气观测

该预报发布于36分钟前的06:20 UTC
风速2节,风向多变
温度 2°C
湿度 100%
气压 1011 hPa
能见度10公里或以上
少量云层高于4500英尺

METAR: EGNC 200620Z VRB02KT 9999 FEW045 02/02 Q1011

时间: 07:56 (06:56 UTC)

预报

该预报发布于47分钟前的06:09 UTC
预报有效从20日的 06点(UTC)到 20日的 15点(UTC)
风速8节,风向北转西北
能见度10公里或以上
少量云层高于2000英尺
几率 30% :
短暂存在
从 20日的 09点(UTC)到 20日的 15点(UTC)
风速15节,风向,有时为25节阵风

TAF: EGNC 200609Z 2006/2015 34008KT 9999 FEW020 PROB30 TEMPO 2009/2015 36015G25KT

超过4000个机场的气象观测和天气预报(METAR&TAF报告)。

可查询的气象台以黄色和红色小点在地图上表示。

将鼠标移到小点上方,可查看气象台名称。

然后点击查看天气观测和预报。

如需切换地图:点击带黑十字的绿色按钮放大地图;点击带横线的绿色按钮缩小地图;或者点击绿色箭头查看邻近地区的地图。


METAR-TAF: